McCool, Mississippi
Current Conditions -  °F | °C
As of 3:35 PM on Monday 24 Nov 2014 (Local Time) from KSTF Reporting Station
Clear Clear  
Wind Chill: 59°   Ceiling: Unl
Heat Index: 59°   Visibility: NA
Dew Point: 36°   Wind: 5mph
Humidity: 42%   Direction: 270°W
Pressure: 29.94"   Gusts: NA
Location:  33.2°N, 89.35°W
Report Text: KSTF 242135Z AUTO 27004KT CLR 15/02 A2994 RMK AO2 PWINO
Loading
Personal Weather Stations






























Interactive Weather Map New forecast layout! Learn more

10-Day Weather Forecast

Advertisements
Track Severe Weather on mobile